Latest Weather Observations for Casey*

IDT60801

Issued at 7:32 pm EDT Thursday 19 January 2017 (issued every 30 minutes, with the page automatically refreshed every 10 minutes)

About weather observations | Map of weather stations | Latest weather observations for ANT | Other Formats
Station Details ID: 300017 Name: CASEY Lat: -66.28 Lon: 110.52 Height: 40.0 m
Data from the previous 72 hours. | See also: Recent months at Casey*
Date/Time
EDT
Temp
°C
App
Temp
°C
Dew
Point
°C
Rel
Hum
%
Delta-T
°C
Wind Press
QNH
hPa
Press
MSL
hPa
Rain since
9am
mm
Dir  Spd
km/h
Gust
km/h
Spd
kts
Gust
kts
19/07:30pm 0.3 -13.7 -7.0 58 - E 59 72 32 39 989.5 - -
19/07:00pm 0.3 -12.8 -7.0 58 - E 54 67 29 36 989.7 - -
19/06:30pm 0.1 -13.9 -6.9 59 - E 59 72 32 39 989.5 - -
19/06:23pm 0.2 -13.3 -7.1 58 - E 56 65 30 35 989.8 - -
19/06:15pm -0.2 -9.6 -6.8 61 - E 35 54 19 29 990.3 - -
19/06:00pm 0.3 -10.7 -6.8 59 - E 43 52 23 28 990.3 - -
19/05:30pm 0.3 -9.1 -6.5 60 - E 35 46 19 25 990.4 - -
19/05:00pm 0.2 -7.7 -5.0 68 - E 28 35 15 19 991.2 991.4 -
19/04:30pm -0.7 -6.6 -5.5 70 - E 17 32 9 17 991.8 - -
19/04:00pm 0.9 -3.8 -8.6 49 - ENE 9 15 5 8 992.0 - -
19/03:30pm 0.6 -4.0 -7.6 54 - S 9 13 5 7 991.9 - -
19/03:00pm 0.4 -4.8 -6.7 59 - S 13 15 7 8 992.1 - -
19/02:30pm 0.0 -5.5 -5.2 68 - S 15 19 8 10 992.2 - -
19/02:00pm -0.2 -6.5 -6.2 64 - SSW 19 20 10 11 992.6 992.8 -
19/01:30pm 0.0 -4.7 -4.6 71 - S 11 15 6 8 992.8 - -
19/01:00pm -0.7 -6.9 -5.3 71 - S 19 20 10 11 993.1 - -
19/12:30pm -0.7 -6.6 -5.5 70 - SW 17 19 9 10 993.3 - -
19/12:00pm -0.3 -6.3 -6.3 64 - SSW 17 20 9 11 993.6 - -
19/11:30am -0.9 -5.7 -5.9 69 - W 11 15 6 8 994.1 - -
19/11:00am -0.6 -5.6 -7.8 58 - NW 11 15 6 8 994.3 994.5 -
19/10:30am -0.2 -6.0 -8.8 52 - NE 15 19 8 10 994.3 - -
19/10:00am -0.3 -5.3 -8.5 54 - NNW 11 24 6 13 994.2 - -
19/09:30am -0.8 -5.4 -3.8 80 - N 11 20 6 11 994.4 - -
19/09:00am -0.2 -4.8 -8.1 55 - N 9 13 5 7 994.4 - -
19/08:30am -0.6 -6.2 -6.1 66 - NE 15 19 8 10 994.6 - -
19/08:00am -1.0 -6.2 -6.1 68 - NE 13 17 7 9 994.6 994.8 -
19/07:30am -0.8 -5.2 -5.8 69 - NE 9 11 5 6 994.6 - -
19/07:00am -0.4 -3.1 -6.0 66 - CALM 0 0 0 0 994.6 - -
19/06:30am -0.9 -4.0 -5.7 70 - ENE 2 6 1 3 994.8 - -
19/06:00am -0.8 -4.6 -5.4 71 - ENE 6 7 3 4 995.0 - -
19/05:30am -0.9 -4.3 -5.5 71 - SE 4 6 2 3 995.2 - -
19/05:00am -1.0 -5.4 -5.8 70 - SE 9 11 5 6 995.4 995.6 -
19/04:30am -1.2 -6.3 -5.4 73 - S 13 15 7 8 995.6 - -
19/04:00am -0.9 -4.4 -6.0 68 - S 4 9 2 5 995.8 - -
19/03:30am -1.1 -4.9 -5.3 73 - SSE 6 9 3 5 995.9 - -
19/03:00am -0.7 -5.1 -6.0 67 - SSW 9 13 5 7 996.1 - -
19/02:30am -0.2 -3.0 -6.6 62 - CALM 0 0 0 0 996.3 - -
19/02:00am -0.6 -5.5 -6.8 63 - SSE 11 15 6 8 996.6 996.9 -
19/01:30am -0.7 -6.3 -5.9 68 - SE 15 19 8 10 996.7 - -
19/01:00am -0.3 -6.6 -6.1 65 - SE 19 22 10 12 996.8 - -
19/12:30am -0.1 -6.5 -6.5 62 - SE 19 20 10 11 997.0 - -
19/12:00am -0.2 -5.7 -5.4 68 - SSE 15 19 8 10 997.2 - -
 
Date/Time
EDT
Temp
°C
App
Temp
°C
Dew
Point
°C
Rel
Hum
%
Delta-T
°C
Wind Press
QNH
hPa
Press
MSL
hPa
Rain since
9am
mm
Dir  Spd
km/h
Gust
km/h
Spd
kts
Gust
kts
18/11:30pm -0.1 -6.0 -6.1 64 - SSE 17 19 9 10 997.4 - -
18/11:00pm 0.0 -5.6 -6.2 63 - SSE 15 19 8 10 997.5 997.8 -
18/10:30pm -0.1 -6.0 -5.9 65 - SSE 17 20 9 11 997.5 - -
18/10:00pm 0.2 -4.9 -5.2 67 - S 13 17 7 9 997.6 - -
18/09:30pm 0.4 -4.7 -5.4 65 - S 13 15 7 8 997.8 - -
18/09:00pm 0.3 -4.2 -6.5 60 - S 9 11 5 6 997.9 - -
18/08:30pm 0.6 -3.5 -6.5 59 - S 7 9 4 5 998.0 - -
18/08:00pm 1.5 -2.3 -5.6 59 - SSW 6 13 3 7 998.0 998.3 -
18/07:30pm 1.4 -2.7 -6.6 55 - SW 7 11 4 6 998.1 - -
18/07:00pm 1.3 -2.7 -8.0 50 - NW 6 9 3 5 998.2 - -
18/06:30pm 1.4 -2.8 -8.1 49 - NNW 7 9 4 5 998.4 - -
18/06:00pm 0.7 -3.5 -7.5 54 - NNW 7 11 4 6 998.6 - -
18/05:30pm 1.1 -3.3 -6.0 59 - NNW 9 13 5 7 998.7 - -
18/05:00pm 1.2 -3.5 -5.0 63 - N 11 13 6 7 998.9 999.2 -
18/04:30pm 1.5 -2.8 -4.8 63 - NNW 9 13 5 7 998.9 - -
18/04:00pm 0.8 -3.3 -6.3 59 - N 7 11 4 6 998.9 - -
18/03:30pm 0.5 -3.8 -4.9 67 - NW 9 13 5 7 999.0 - -
18/03:00pm 0.8 -3.9 -4.8 66 - W 11 15 6 8 999.0 - -
18/02:30pm 0.9 -3.8 -4.9 65 - W 11 15 6 8 999.1 - -
18/02:00pm 0.9 -3.9 -5.8 61 - WSW 11 13 6 7 999.3 999.6 -
18/01:30pm 0.1 -4.4 -6.9 59 - WSW 9 11 5 6 999.4 - -
18/01:00pm 0.3 -3.9 -7.7 55 - W 7 9 4 5 999.6 - -
18/12:30pm 0.0 -4.2 -7.7 56 - WNW 7 9 4 5 999.7 - -
18/12:00pm 0.0 -4.6 -7.5 57 - NNW 9 11 5 6 1000.0 - -
18/11:30am 0.1 -4.1 -7.8 55 - ENE 7 11 4 6 1000.1 - -
18/11:00am -0.4 -5.3 -6.6 63 - NE 11 15 6 8 1000.2 1000.5 -
18/10:30am -0.8 -6.4 -6.9 63 - ENE 15 19 8 10 1000.3 - -
18/10:00am -1.0 -7.4 -7.1 63 - E 19 24 10 13 1000.3 - -
18/09:30am -0.7 -3.3 -4.9 73 - CALM 0 0 0 0 1000.3 - -
18/09:00am -0.9 -3.6 -5.5 71 - CALM 0 0 0 0 1000.2 - -
18/08:30am -1.0 -3.6 -5.0 74 - CALM 0 0 0 0 1000.1 - -
18/08:00am -1.0 -4.3 -4.7 76 - N 4 6 2 3 999.9 1000.2 -
18/07:30am -1.2 -4.5 -4.5 78 - NE 4 6 2 3 999.8 - -
18/07:00am -1.2 -4.9 -4.7 77 - ENE 6 7 3 4 999.6 - -
18/06:30am -1.2 -4.2 -4.9 76 - SSE 2 9 1 5 999.5 - -
18/06:00am -1.7 -4.4 -5.7 74 - CALM 0 0 0 0 999.5 - -
18/05:30am -1.6 -4.3 -6.0 72 - CALM 0 0 0 0 999.4 - -
18/05:00am -1.6 -4.3 -6.3 70 - CALM 0 0 0 0 999.4 999.7 -
18/04:30am -1.5 -4.2 -5.7 73 - CALM 0 0 0 0 999.2 - -
18/04:00am -1.9 -4.6 -5.9 74 - CALM 0 0 0 0 999.2 - -
18/03:30am -1.6 -4.3 -6.2 71 - CALM 0 0 0 0 999.0 - -
18/03:00am -1.2 -4.0 -6.5 67 - CALM 0 0 0 0 999.0 - -
18/02:30am -1.6 -4.4 -7.1 66 - CALM 0 0 0 0 998.9 - -
18/02:00am -1.9 -4.7 -7.4 66 - CALM 0 0 0 0 998.8 999.1 -
18/01:30am -2.1 -5.3 -7.2 68 - SSE 2 6 1 3 998.6 - -
18/01:00am -2.1 -6.0 -7.0 69 - SE 6 9 3 5 998.5 - -
18/12:30am -2.3 -6.8 -7.0 70 - E 9 9 5 5 998.4 - -
18/12:00am -1.1 -5.5 -5.5 72 - E 9 9 5 5 998.1 - -
 
Date/Time
EDT
Temp
°C
App
Temp
°C
Dew
Point
°C
Rel
Hum
%
Delta-T
°C
Wind Press
QNH
hPa
Press
MSL
hPa
Rain since
9am
mm
Dir  Spd
km/h
Gust
km/h
Spd
kts
Gust
kts
17/11:30pm -0.9 -4.9 -5.5 71 - ESE 7 7 4 4 998.1 - -
17/11:00pm -0.3 -4.2 -5.1 70 - E 7 9 4 5 998.1 998.4 -
17/10:30pm 0.1 -3.9 -5.5 66 - ESE 7 9 4 5 998.0 - -
17/10:00pm -0.1 -4.6 -6.9 60 - ESE 9 13 5 7 997.8 - -
17/09:30pm 0.0 -4.5 -6.6 61 - ESE 9 11 5 6 997.7 - -
17/09:00pm 0.2 -4.2 -6.2 62 - SE 9 11 5 6 997.7 - -
17/08:30pm 0.1 -4.4 -6.7 60 - ESE 9 11 5 6 997.6 - -
17/08:00pm 0.0 -4.1 -6.6 61 - S 7 9 4 5 997.4 997.7 -
17/07:30pm 0.1 -4.0 -6.3 62 - S 7 11 4 6 997.1 - -
17/07:00pm -0.1 -4.5 -6.3 63 - S 9 11 5 6 997.0 - -
17/06:30pm -0.1 -4.8 -4.9 70 - S 11 13 6 7 997.0 - -
17/06:00pm -0.3 -5.0 -5.3 69 - S 11 13 6 7 996.9 - -
17/05:30pm -0.4 -4.8 -5.6 68 - S 9 11 5 6 996.8 - -
17/05:00pm -0.6 -5.0 -5.8 68 - SSE 9 11 5 6 996.8 997.1 -
17/04:30pm -0.4 -4.7 -4.6 73 - S 9 15 5 8 996.8 - -
17/04:00pm -0.4 -4.7 -4.8 72 - S 9 11 5 6 996.6 - -
17/03:30pm -0.5 -5.1 -4.5 74 - SW 11 15 6 8 996.4 - -
17/03:00pm -0.5 -5.2 -4.7 73 - WSW 11 13 6 7 996.2 - -
17/02:30pm -0.5 -4.8 -4.9 72 - WSW 9 11 5 6 996.1 - -
17/02:00pm -0.5 -4.8 -4.7 73 - SW 9 13 5 7 996.1 996.4 -
17/01:30pm -0.6 -4.6 -5.2 71 - S 7 9 4 5 996.0 - -
17/01:00pm -0.9 -5.2 -4.9 74 - SSW 9 11 5 6 996.1 - -
17/12:30pm -1.1 -5.0 -4.8 76 - S 7 9 4 5 996.1 - -
17/12:00pm -1.3 -4.7 -5.3 74 - NE 4 7 2 4 996.0 - -
17/11:30am -1.6 -5.5 -4.6 80 - WNW 7 9 4 5 996.0 - -
17/11:00am -1.5 -5.4 -4.7 79 - N 7 11 4 6 995.9 996.2 -
17/10:30am -2.0 -5.9 -5.0 80 - N 7 11 4 6 995.8 - -
17/10:00am -2.0 -5.8 -5.5 77 - N 6 9 3 5 995.8 - -
17/09:30am -2.3 -6.3 -5.4 79 - NNE 7 9 4 5 995.7 - -
17/09:00am -2.4 -7.9 -5.4 80 - NE 15 17 8 9 995.6 - -
17/08:30am -2.5 -7.3 -5.6 79 - NE 11 19 6 10 995.5 - -
17/08:00am -2.6 -8.2 -6.1 77 - NE 15 17 8 9 995.3 995.5 -
17/07:30am -2.7 -7.5 -6.0 78 - NE 11 13 6 7 995.1 - -
17/07:00am -3.0 -8.5 -5.6 82 - NE 15 17 8 9 994.9 - -
17/06:30am -2.8 -7.9 -5.6 81 - NE 13 17 7 9 994.7 - -
17/06:00am -2.8 -8.3 -5.1 84 - NE 15 15 8 8 994.8 - -
17/05:30am -2.5 -7.1 -4.5 86 - NNE 11 15 6 8 994.8 - -
17/05:00am -2.5 -7.5 -4.7 85 - NE 13 15 7 8 994.6 994.8 -
17/04:30am -2.8 -7.5 -5.4 82 - NE 11 13 6 7 994.5 - -
17/04:00am -2.6 -7.3 -5.2 82 - NE 11 13 6 7 994.4 - -
17/03:30am -2.1 -6.3 -4.0 87 - NNE 9 11 5 6 994.3 - -
17/03:00am -2.0 -5.7 -5.0 80 - ESE 6 7 3 4 994.2 - -
17/02:30am -2.0 -5.9 -4.3 84 - ENE 7 9 4 5 994.2 - -
17/02:00am -1.6 -5.7 -3.2 89 - NE 9 13 5 7 994.2 994.4 -
17/01:30am -1.5 -5.3 -3.4 87 - NNE 7 9 4 5 994.3 - -
17/01:00am -1.5 -5.7 -3.5 86 - N 9 11 5 6 994.2 - -
17/12:30am -1.4 -6.0 -3.7 84 - N 11 13 6 7 994.3 - -
17/12:00am -1.2 -5.3 -3.4 85 - N 9 13 5 7 994.5 - -
 
Date/Time
EDT
Temp
°C
App
Temp
°C
Dew
Point
°C
Rel
Hum
%
Delta-T
°C
Wind Press
QNH
hPa
Press
MSL
hPa
Rain since
9am
mm
Dir  Spd
km/h
Gust
km/h
Spd
kts
Gust
kts
16/11:30pm -1.1 -5.3 -3.8 82 - N 9 11 5 6 994.6 - -
16/11:00pm -0.8 -5.0 -3.5 82 - N 9 13 5 7 994.6 994.8 -

Other Formats:

Comma delimited format used in spreadsheet applications
http://www.bom.gov.au/fwo/IDT60803/IDT60803.89611.axf

JavaScript Object Notation format (JSON) in row-major order
http://www.bom.gov.au/fwo/IDT60803/IDT60803.89611.json